sensor_id;sensor_type;location;lat;lon;timestamp;temperature;humidity
55054;DHT22;40954;45.668;18.980;2022-10-17T00:00:43;358.50;2329.60
55054;DHT22;40954;45.668;18.980;2022-10-17T00:03:09;358.50;2329.60
55054;DHT22;40954;45.668;18.980;2022-10-17T00:05:42;358.50;2329.60
55054;DHT22;40954;45.668;18.980;2022-10-17T00:08:09;358.60;2329.60
55054;DHT22;40954;45.668;18.980;2022-10-17T00:10:35;358.50;2329.60
55054;DHT22;40954;45.668;18.980;2022-10-17T00:13:01;358.50;2329.60
55054;DHT22;40954;45.668;18.980;2022-10-17T00:15:27;358.40;2329.60
55054;DHT22;40954;45.668;18.980;2022-10-17T00:17:53;358.40;2329.60
55054;DHT22;40954;45.668;18.980;2022-10-17T00:20:19;358.40;2329.60
55054;DHT22;40954;45.668;18.980;2022-10-17T00:22:44;358.40;2329.60
55054;DHT22;40954;45.668;18.980;2022-10-17T00:25:11;333.70;2329.60
55054;DHT22;40954;45.668;18.980;2022-10-17T00:27:38;333.70;2329.60
55054;DHT22;40954;45.668;18.980;2022-10-17T00:30:06;358.40;2329.60
55054;DHT22;40954;45.668;18.980;2022-10-17T00:32:31;333.70;2329.60
55054;DHT22;40954;45.668;18.980;2022-10-17T00:34:58;333.60;2329.60
55054;DHT22;40954;45.668;18.980;2022-10-17T00:37:23;333.60;2329.60
55054;DHT22;40954;45.668;18.980;2022-10-17T00:39:49;333.70;2329.60
55054;DHT22;40954;45.668;18.980;2022-10-17T00:42:15;333.60;2329.60
55054;DHT22;40954;45.668;18.980;2022-10-17T00:47:18;333.60;2329.60
55054;DHT22;40954;45.668;18.980;2022-10-17T00:49:45;333.60;2329.60
55054;DHT22;40954;45.668;18.980;2022-10-17T00:52:14;333.60;2329.60
55054;DHT22;40954;45.668;18.980;2022-10-17T00:54:48;333.60;2329.60
55054;DHT22;40954;45.668;18.980;2022-10-17T00:57:16;333.50;2329.60
55054;DHT22;40954;45.668;18.980;2022-10-17T00:59:42;333.50;2329.60
55054;DHT22;40954;45.668;18.980;2022-10-17T01:02:12;333.50;2329.60
55054;DHT22;40954;45.668;18.980;2022-10-17T01:04:42;333.40;2329.60
55054;DHT22;40954;45.668;18.980;2022-10-17T01:07:09;333.40;2329.60
55054;DHT22;40954;45.668;18.980;2022-10-17T01:09:35;333.40;2329.60
55054;DHT22;40954;45.668;18.980;2022-10-17T01:15:04;333.50;2329.60
55054;DHT22;40954;45.668;18.980;2022-10-17T01:23:21;333.30;2329.60
55054;DHT22;40954;45.668;18.980;2022-10-17T01:26:10;333.30;2329.60
55054;DHT22;40954;45.668;18.980;2022-10-17T01:31:13;333.30;2329.60
55054;DHT22;40954;45.668;18.980;2022-10-17T01:36:42;333.10;2329.60
55054;DHT22;40954;45.668;18.980;2022-10-17T01:39:14;333.10;2329.60
55054;DHT22;40954;45.668;18.980;2022-10-17T01:44:19;333.10;2329.60
55054;DHT22;40954;45.668;18.980;2022-10-17T01:46:49;333.10;2329.60
55054;DHT22;40954;45.668;18.980;2022-10-17T01:49:19;333.00;2329.60
55054;DHT22;40954;45.668;18.980;2022-10-17T01:52:00;333.00;2329.60
55054;DHT22;40954;45.668;18.980;2022-10-17T01:54:50;333.00;2329.60
55054;DHT22;40954;45.668;18.980;2022-10-17T01:57:31;333.00;2329.60
55054;DHT22;40954;45.668;18.980;2022-10-17T01:59:59;332.90;2329.60
55054;DHT22;40954;45.668;18.980;2022-10-17T02:02:26;332.90;2329.60
55054;DHT22;40954;45.668;18.980;2022-10-17T02:04:54;332.90;2329.60
55054;DHT22;40954;45.668;18.980;2022-10-17T02:07:20;332.80;2329.60
55054;DHT22;40954;45.668;18.980;2022-10-17T02:09:46;332.80;2329.60
55054;DHT22;40954;45.668;18.980;2022-10-17T02:15:27;332.90;2329.60
55054;DHT22;40954;45.668;18.980;2022-10-17T02:21:07;308.10;2304.00
55054;DHT22;40954;45.668;18.980;2022-10-17T02:23:59;308.10;2304.00
55054;DHT22;40954;45.668;18.980;2022-10-17T02:26:32;308.10;2304.00
55054;DHT22;40954;45.668;18.980;2022-10-17T02:32:06;308.10;2304.00
55054;DHT22;40954;45.668;18.980;2022-10-17T02:34:40;308.10;2304.00
55054;DHT22;40954;45.668;18.980;2022-10-17T02:37:09;308.10;2304.00
55054;DHT22;40954;45.668;18.980;2022-10-17T02:39:37;308.00;2304.00
55054;DHT22;40954;45.668;18.980;2022-10-17T02:42:07;308.00;2304.00
55054;DHT22;40954;45.668;18.980;2022-10-17T02:44:37;308.00;2304.00
55054;DHT22;40954;45.668;18.980;2022-10-17T02:47:21;307.90;2304.00
55054;DHT22;40954;45.668;18.980;2022-10-17T02:49:52;307.90;2304.00
55054;DHT22;40954;45.668;18.980;2022-10-17T02:52:36;307.90;2304.00
55054;DHT22;40954;45.668;18.980;2022-10-17T02:57:52;307.90;2304.00
55054;DHT22;40954;45.668;18.980;2022-10-17T03:00:21;307.80;2304.00
55054;DHT22;40954;45.668;18.980;2022-10-17T03:02:49;307.70;2304.00
55054;DHT22;40954;45.668;18.980;2022-10-17T03:05:26;307.70;2304.00
55054;DHT22;40954;45.668;18.980;2022-10-17T03:07:53;307.80;2304.00
55054;DHT22;40954;45.668;18.980;2022-10-17T03:10:20;307.80;2304.00
55054;DHT22;40954;45.668;18.980;2022-10-17T03:12:46;307.80;2304.00
55054;DHT22;40954;45.668;18.980;2022-10-17T03:15:12;307.80;2304.00
55054;DHT22;40954;45.668;18.980;2022-10-17T03:17:37;307.80;2304.00
55054;DHT22;40954;45.668;18.980;2022-10-17T03:20:04;307.80;2304.00
55054;DHT22;40954;45.668;18.980;2022-10-17T03:22:30;307.80;2304.00
55054;DHT22;40954;45.668;18.980;2022-10-17T03:24:56;307.80;2304.00
55054;DHT22;40954;45.668;18.980;2022-10-17T03:27:22;307.70;2304.00
55054;DHT22;40954;45.668;18.980;2022-10-17T03:29:47;307.70;2304.00
55054;DHT22;40954;45.668;18.980;2022-10-17T03:32:13;307.70;2304.00
55054;DHT22;40954;45.668;18.980;2022-10-17T03:34:39;307.70;2304.00
55054;DHT22;40954;45.668;18.980;2022-10-17T03:37:04;307.70;2304.00
55054;DHT22;40954;45.668;18.980;2022-10-17T03:39:30;307.60;2304.00
55054;DHT22;40954;45.668;18.980;2022-10-17T04:48:04;332.80;2329.60
55054;DHT22;40954;45.668;18.980;2022-10-17T04:50:30;307.70;2304.00
55054;DHT22;40954;45.668;18.980;2022-10-17T04:52:55;307.60;2304.00
55054;DHT22;40954;45.668;18.980;2022-10-17T04:55:21;307.70;2304.00
55054;DHT22;40954;45.668;18.980;2022-10-17T04:57:47;307.70;2304.00
55054;DHT22;40954;45.668;18.980;2022-10-17T05:00:13;307.60;2304.00
55054;DHT22;40954;45.668;18.980;2022-10-17T05:02:38;307.40;2304.00
55054;DHT22;40954;45.668;18.980;2022-10-17T05:05:04;307.40;2304.00
55054;DHT22;40954;45.668;18.980;2022-10-17T06:23:06;333.20;2329.60
55054;DHT22;40954;45.668;18.980;2022-10-17T06:25:32;333.10;2329.60
55054;DHT22;40954;45.668;18.980;2022-10-17T06:27:58;333.00;2329.60
55054;DHT22;40954;45.668;18.980;2022-10-17T06:30:24;333.00;2329.60
55054;DHT22;40954;45.668;18.980;2022-10-17T06:32:51;332.90;2329.60
55054;DHT22;40954;45.668;18.980;2022-10-17T06:35:18;333.00;2329.60
55054;DHT22;40954;45.668;18.980;2022-10-17T06:37:44;333.10;2329.60
55054;DHT22;40954;45.668;18.980;2022-10-17T06:40:11;333.20;2329.60
55054;DHT22;40954;45.668;18.980;2022-10-17T06:42:37;333.20;2329.60
55054;DHT22;40954;45.668;18.980;2022-10-17T06:45:04;333.30;2329.60
55054;DHT22;40954;45.668;18.980;2022-10-17T06:47:30;333.30;2329.60
55054;DHT22;40954;45.668;18.980;2022-10-17T06:49:56;333.40;2329.60
55054;DHT22;40954;45.668;18.980;2022-10-17T06:52:22;333.40;2329.60
55054;DHT22;40954;45.668;18.980;2022-10-17T06:54:47;333.50;2329.60
55054;DHT22;40954;45.668;18.980;2022-10-17T06:57:13;333.50;2329.60
55054;DHT22;40954;45.668;18.980;2022-10-17T06:59:39;333.60;2329.60
55054;DHT22;40954;45.668;18.980;2022-10-17T07:02:05;333.70;2329.60
55054;DHT22;40954;45.668;18.980;2022-10-17T07:04:30;333.70;2329.60
55054;DHT22;40954;45.668;18.980;2022-10-17T07:06:56;358.40;2329.60
55054;DHT22;40954;45.668;18.980;2022-10-17T07:09:22;358.40;2329.60
55054;DHT22;40954;45.668;18.980;2022-10-17T07:11:48;358.50;2329.60
55054;DHT22;40954;45.668;18.980;2022-10-17T07:14:14;358.50;2329.60
55054;DHT22;40954;45.668;18.980;2022-10-17T07:16:40;358.70;2329.60
55054;DHT22;40954;45.668;18.980;2022-10-17T07:19:05;358.70;2329.60
55054;DHT22;40954;45.668;18.980;2022-10-17T07:21:31;358.70;2329.60
55054;DHT22;40954;45.668;18.980;2022-10-17T07:23:57;358.70;2329.60
55054;DHT22;40954;45.668;18.980;2022-10-17T07:26:23;358.80;2329.60
55054;DHT22;40954;45.668;18.980;2022-10-17T07:28:52;358.80;2329.60
55054;DHT22;40954;45.668;18.980;2022-10-17T07:31:19;358.90;2329.60
55054;DHT22;40954;45.668;18.980;2022-10-17T07:33:46;358.90;2329.60
55054;DHT22;40954;45.668;18.980;2022-10-17T07:36:12;359.00;2329.60
55054;DHT22;40954;45.668;18.980;2022-10-17T07:38:38;359.10;2329.60
55054;DHT22;40954;45.668;18.980;2022-10-17T07:41:06;359.20;2329.60
55054;DHT22;40954;45.668;18.980;2022-10-17T07:43:32;359.30;2329.60
55054;DHT22;40954;45.668;18.980;2022-10-17T07:46:00;384.00;2329.60
55054;DHT22;40954;45.668;18.980;2022-10-17T07:48:26;384.10;2329.60
55054;DHT22;40954;45.668;18.980;2022-10-17T07:50:52;384.20;2329.60
55054;DHT22;40954;45.668;18.980;2022-10-17T07:53:18;384.20;2329.60
55054;DHT22;40954;45.668;18.980;2022-10-17T07:55:44;384.30;2329.60
55054;DHT22;40954;45.668;18.980;2022-10-17T07:58:11;384.40;2329.60
55054;DHT22;40954;45.668;18.980;2022-10-17T08:00:37;384.50;2329.60
55054;DHT22;40954;45.668;18.980;2022-10-17T08:03:04;384.60;2329.60
55054;DHT22;40954;45.668;18.980;2022-10-17T08:05:30;384.80;2329.60
55054;DHT22;40954;45.668;18.980;2022-10-17T08:07:56;384.80;2329.60
55054;DHT22;40954;45.668;18.980;2022-10-17T08:10:23;384.90;2329.60
55054;DHT22;40954;45.668;18.980;2022-10-17T08:12:53;409.60;2355.20
55054;DHT22;40954;45.668;18.980;2022-10-17T08:15:19;409.60;2355.20
55054;DHT22;40954;45.668;18.980;2022-10-17T08:17:44;409.70;2355.20
55054;DHT22;40954;45.668;18.980;2022-10-17T08:20:10;409.80;2355.20
55054;DHT22;40954;45.668;18.980;2022-10-17T08:22:36;409.90;2355.20
55054;DHT22;40954;45.668;18.980;2022-10-17T08:25:02;410.00;2355.20
55054;DHT22;40954;45.668;18.980;2022-10-17T08:27:28;410.10;2355.20
55054;DHT22;40954;45.668;18.980;2022-10-17T08:29:53;410.10;2355.20
55054;DHT22;40954;45.668;18.980;2022-10-17T08:32:21;410.20;2355.20
55054;DHT22;40954;45.668;18.980;2022-10-17T08:34:47;410.20;2355.20
55054;DHT22;40954;45.668;18.980;2022-10-17T08:37:14;410.30;2355.20
55054;DHT22;40954;45.668;18.980;2022-10-17T08:39:40;410.40;2355.20
55054;DHT22;40954;45.668;18.980;2022-10-17T08:47:38;410.50;2355.20
55054;DHT22;40954;45.668;18.980;2022-10-17T08:50:11;435.20;2355.20
55054;DHT22;40954;45.668;18.980;2022-10-17T08:52:40;435.30;2355.20
55054;DHT22;40954;45.668;18.980;2022-10-17T08:55:25;435.40;2355.20
55054;DHT22;40954;45.668;18.980;2022-10-17T08:57:52;435.40;2355.20
55054;DHT22;40954;45.668;18.980;2022-10-17T09:00:20;435.50;2355.20
55054;DHT22;40954;45.668;18.980;2022-10-17T09:03:01;435.70;2355.20
55054;DHT22;40954;45.668;18.980;2022-10-17T09:08:23;435.70;2355.20
55054;DHT22;40954;45.668;18.980;2022-10-17T09:11:24;435.80;2355.20
55054;DHT22;40954;45.668;18.980;2022-10-17T09:17:02;436.00;2355.20
55054;DHT22;40954;45.668;18.980;2022-10-17T09:22:32;460.80;2380.80
55054;DHT22;40954;45.668;18.980;2022-10-17T09:25:02;460.90;2380.80
55054;DHT22;40954;45.668;18.980;2022-10-17T09:27:40;460.90;2380.80
55054;DHT22;40954;45.668;18.980;2022-10-17T09:30:19;461.00;2380.80
55054;DHT22;40954;45.668;18.980;2022-10-17T09:32:46;461.10;2380.80
55054;DHT22;40954;45.668;18.980;2022-10-17T09:35:16;461.10;2380.80
55054;DHT22;40954;45.668;18.980;2022-10-17T09:37:42;461.20;2380.80
55054;DHT22;40954;45.668;18.980;2022-10-17T09:40:26;461.30;2380.80
55054;DHT22;40954;45.668;18.980;2022-10-17T09:42:55;461.30;2380.80
55054;DHT22;40954;45.668;18.980;2022-10-17T09:45:22;461.40;2380.80
55054;DHT22;40954;45.668;18.980;2022-10-17T09:48:23;461.50;2380.80
55054;DHT22;40954;45.668;18.980;2022-10-17T09:50:51;461.60;2380.80
55054;DHT22;40954;45.668;18.980;2022-10-17T09:53:19;461.60;2380.80
55054;DHT22;40954;45.668;18.980;2022-10-17T09:55:52;461.70;2380.80
55054;DHT22;40954;45.668;18.980;2022-10-17T11:00:54;1126.90;819.20
55054;DHT22;40954;45.668;18.980;2022-10-17T14:41:29;1024.80;614.40
55054;DHT22;40954;45.668;18.980;2022-10-17T18:51:47;461.20;1996.80
55054;DHT22;40954;45.668;18.980;2022-10-17T18:54:15;461.00;1971.20
55054;DHT22;40954;45.668;18.980;2022-10-17T18:56:54;460.90;1971.20
55054;DHT22;40954;45.668;18.980;2022-10-17T18:59:20;460.80;2073.60
55054;DHT22;40954;45.668;18.980;2022-10-17T19:01:46;436.10;2201.60
55054;DHT22;40954;45.668;18.980;2022-10-17T19:04:13;436.10;2099.20
55054;DHT22;40954;45.668;18.980;2022-10-17T19:06:39;436.10;2022.40
55054;DHT22;40954;45.668;18.980;2022-10-17T19:09:07;436.10;1996.80
55054;DHT22;40954;45.668;18.980;2022-10-17T19:11:34;436.00;1996.80
55054;DHT22;40954;45.668;18.980;2022-10-17T19:14:03;436.00;2022.40
55054;DHT22;40954;45.668;18.980;2022-10-17T19:16:36;435.90;2048.00
55054;DHT22;40954;45.668;18.980;2022-10-17T19:19:18;435.80;2073.60
55054;DHT22;40954;45.668;18.980;2022-10-17T19:21:44;435.70;2099.20
55054;DHT22;40954;45.668;18.980;2022-10-17T19:24:16;435.70;2099.20
55054;DHT22;40954;45.668;18.980;2022-10-17T19:26:42;435.60;2099.20
55054;DHT22;40954;45.668;18.980;2022-10-17T19:29:12;435.50;2124.80
55054;DHT22;40954;45.668;18.980;2022-10-17T19:31:38;435.50;2150.40
55054;DHT22;40954;45.668;18.980;2022-10-17T19:34:04;435.40;2150.40
55054;DHT22;40954;45.668;18.980;2022-10-17T19:36:31;435.40;2176.00
55054;DHT22;40954;45.668;18.980;2022-10-17T19:38:59;435.30;2201.60
55054;DHT22;40954;45.668;18.980;2022-10-17T19:41:25;435.20;2176.00
55054;DHT22;40954;45.668;18.980;2022-10-17T19:43:52;435.20;2227.20
55054;DHT22;40954;45.668;18.980;2022-10-17T19:46:20;410.50;2227.20
55054;DHT22;40954;45.668;18.980;2022-10-17T19:48:47;410.50;2278.40
55054;DHT22;40954;45.668;18.980;2022-10-17T19:51:15;410.40;2278.40
55054;DHT22;40954;45.668;18.980;2022-10-17T19:53:42;410.40;2304.00
55054;DHT22;40954;45.668;18.980;2022-10-17T19:56:08;410.30;2329.60
55054;DHT22;40954;45.668;18.980;2022-10-17T19:58:35;410.30;2329.60
55054;DHT22;40954;45.668;18.980;2022-10-17T20:01:08;410.20;2355.20
55054;DHT22;40954;45.668;18.980;2022-10-17T20:03:34;410.20;2355.20
55054;DHT22;40954;45.668;18.980;2022-10-17T20:06:00;410.10;2355.20
55054;DHT22;40954;45.668;18.980;2022-10-17T20:08:26;410.10;2355.20
55054;DHT22;40954;45.668;18.980;2022-10-17T20:10:51;410.00;2355.20
55054;DHT22;40954;45.668;18.980;2022-10-17T20:13:17;410.00;2355.20
55054;DHT22;40954;45.668;18.980;2022-10-17T20:15:55;410.00;2355.20
55054;DHT22;40954;45.668;18.980;2022-10-17T20:18:21;409.90;2355.20
55054;DHT22;40954;45.668;18.980;2022-10-17T20:20:47;409.90;2355.20
55054;DHT22;40954;45.668;18.980;2022-10-17T20:23:13;409.90;2355.20
55054;DHT22;40954;45.668;18.980;2022-10-17T20:25:39;409.90;2355.20
55054;DHT22;40954;45.668;18.980;2022-10-17T20:28:05;409.90;2355.20
55054;DHT22;40954;45.668;18.980;2022-10-17T20:30:30;409.80;2355.20
55054;DHT22;40954;45.668;18.980;2022-10-17T20:32:56;409.80;2355.20
55054;DHT22;40954;45.668;18.980;2022-10-17T20:35:22;409.80;2355.20
55054;DHT22;40954;45.668;18.980;2022-10-17T20:37:48;409.80;2355.20
55054;DHT22;40954;45.668;18.980;2022-10-17T20:40:13;409.80;2355.20
55054;DHT22;40954;45.668;18.980;2022-10-17T20:42:39;409.90;2355.20
55054;DHT22;40954;45.668;18.980;2022-10-17T20:45:05;409.90;2355.20
55054;DHT22;40954;45.668;18.980;2022-10-17T20:47:31;409.90;2355.20
55054;DHT22;40954;45.668;18.980;2022-10-17T20:49:57;409.90;2355.20
55054;DHT22;40954;45.668;18.980;2022-10-17T20:52:23;409.90;2355.20
55054;DHT22;40954;45.668;18.980;2022-10-17T20:54:49;409.80;2355.20
55054;DHT22;40954;45.668;18.980;2022-10-17T20:57:14;409.80;2355.20
55054;DHT22;40954;45.668;18.980;2022-10-17T20:59:40;409.80;2355.20
55054;DHT22;40954;45.668;18.980;2022-10-17T21:02:09;409.80;2355.20
55054;DHT22;40954;45.668;18.980;2022-10-17T21:04:35;409.80;2355.20
55054;DHT22;40954;45.668;18.980;2022-10-17T21:07:01;409.60;2355.20
55054;DHT22;40954;45.668;18.980;2022-10-17T21:09:26;409.60;2355.20
55054;DHT22;40954;45.668;18.980;2022-10-17T21:11:52;384.90;2329.60
55054;DHT22;40954;45.668;18.980;2022-10-17T21:14:20;384.90;2329.60
55054;DHT22;40954;45.668;18.980;2022-10-17T21:16:46;384.90;2329.60
55054;DHT22;40954;45.668;18.980;2022-10-17T21:19:13;384.90;2329.60
55054;DHT22;40954;45.668;18.980;2022-10-17T21:21:42;384.80;2329.60
55054;DHT22;40954;45.668;18.980;2022-10-17T21:24:14;384.80;2329.60
55054;DHT22;40954;45.668;18.980;2022-10-17T21:26:43;384.80;2329.60
55054;DHT22;40954;45.668;18.980;2022-10-17T21:29:11;384.80;2329.60
55054;DHT22;40954;45.668;18.980;2022-10-17T21:31:39;384.80;2329.60
55054;DHT22;40954;45.668;18.980;2022-10-17T21:34:16;384.70;2329.60
55054;DHT22;40954;45.668;18.980;2022-10-17T21:36:43;384.70;2329.60
55054;DHT22;40954;45.668;18.980;2022-10-17T21:39:10;384.60;2329.60
55054;DHT22;40954;45.668;18.980;2022-10-17T21:41:36;384.60;2329.60
55054;DHT22;40954;45.668;18.980;2022-10-17T21:44:10;384.50;2329.60
55054;DHT22;40954;45.668;18.980;2022-10-17T21:46:36;384.50;2329.60
55054;DHT22;40954;45.668;18.980;2022-10-17T21:49:02;384.40;2329.60
55054;DHT22;40954;45.668;18.980;2022-10-17T21:51:28;384.30;2329.60
55054;DHT22;40954;45.668;18.980;2022-10-17T21:53:55;384.30;2329.60
55054;DHT22;40954;45.668;18.980;2022-10-17T21:56:23;384.30;2329.60
55054;DHT22;40954;45.668;18.980;2022-10-17T21:58:49;384.20;2329.60
55054;DHT22;40954;45.668;18.980;2022-10-17T22:01:29;384.20;2329.60
55054;DHT22;40954;45.668;18.980;2022-10-17T22:03:58;384.10;2329.60
55054;DHT22;40954;45.668;18.980;2022-10-17T22:06:27;384.00;2329.60
55054;DHT22;40954;45.668;18.980;2022-10-17T22:08:54;384.10;2329.60
55054;DHT22;40954;45.668;18.980;2022-10-17T22:11:25;384.00;2329.60
55054;DHT22;40954;45.668;18.980;2022-10-17T22:13:53;359.30;2329.60
55054;DHT22;40954;45.668;18.980;2022-10-17T22:16:20;359.30;2329.60
55054;DHT22;40954;45.668;18.980;2022-10-17T22:18:45;359.30;2329.60
55054;DHT22;40954;45.668;18.980;2022-10-17T22:21:14;359.20;2329.60
55054;DHT22;40954;45.668;18.980;2022-10-17T22:23:41;359.20;2329.60
55054;DHT22;40954;45.668;18.980;2022-10-17T22:26:08;359.20;2329.60
55054;DHT22;40954;45.668;18.980;2022-10-17T22:28:34;359.10;2329.60
55054;DHT22;40954;45.668;18.980;2022-10-17T22:31:00;359.10;2329.60
55054;DHT22;40954;45.668;18.980;2022-10-17T22:33:26;359.00;2329.60
55054;DHT22;40954;45.668;18.980;2022-10-17T22:35:52;358.90;2329.60
55054;DHT22;40954;45.668;18.980;2022-10-17T22:38:18;358.90;2329.60
55054;DHT22;40954;45.668;18.980;2022-10-17T22:40:44;358.90;2329.60
55054;DHT22;40954;45.668;18.980;2022-10-17T22:43:11;358.90;2329.60
55054;DHT22;40954;45.668;18.980;2022-10-17T22:45:37;358.90;2329.60
55054;DHT22;40954;45.668;18.980;2022-10-17T22:48:04;358.90;2329.60
55054;DHT22;40954;45.668;18.980;2022-10-17T22:50:29;358.80;2329.60
55054;DHT22;40954;45.668;18.980;2022-10-17T22:52:55;358.60;2329.60
55054;DHT22;40954;45.668;18.980;2022-10-17T22:55:21;358.50;2329.60
55054;DHT22;40954;45.668;18.980;2022-10-17T22:57:46;358.40;2329.60
55054;DHT22;40954;45.668;18.980;2022-10-17T23:00:12;333.70;2329.60
55054;DHT22;40954;45.668;18.980;2022-10-17T23:02:38;333.60;2329.60
55054;DHT22;40954;45.668;18.980;2022-10-17T23:05:05;333.50;2329.60
55054;DHT22;40954;45.668;18.980;2022-10-17T23:07:31;333.50;2329.60
55054;DHT22;40954;45.668;18.980;2022-10-17T23:09:57;333.40;2329.60
55054;DHT22;40954;45.668;18.980;2022-10-17T23:12:23;333.40;2329.60
55054;DHT22;40954;45.668;18.980;2022-10-17T23:14:49;333.30;2329.60
55054;DHT22;40954;45.668;18.980;2022-10-17T23:17:15;333.30;2329.60
55054;DHT22;40954;45.668;18.980;2022-10-17T23:19:41;333.30;2329.60
55054;DHT22;40954;45.668;18.980;2022-10-17T23:22:07;333.20;2329.60
55054;DHT22;40954;45.668;18.980;2022-10-17T23:24:33;333.30;2329.60
55054;DHT22;40954;45.668;18.980;2022-10-17T23:26:59;333.20;2329.60
55054;DHT22;40954;45.668;18.980;2022-10-17T23:29:29;333.20;2329.60
55054;DHT22;40954;45.668;18.980;2022-10-17T23:31:55;333.10;2329.60
55054;DHT22;40954;45.668;18.980;2022-10-17T23:34:21;333.10;2329.60
55054;DHT22;40954;45.668;18.980;2022-10-17T23:36:47;333.10;2329.60
55054;DHT22;40954;45.668;18.980;2022-10-17T23:39:12;333.00;2329.60
55054;DHT22;40954;45.668;18.980;2022-10-17T23:41:38;333.00;2329.60
55054;DHT22;40954;45.668;18.980;2022-10-17T23:44:04;333.00;2329.60
